sensor_id;sensor_type;location;lat;lon;timestamp;pressure;altitude;pressure_sealevel;temperature;humidity
43934;BME280;59081;42.706;23.306;2022-09-03T00:00:50;95184.59;;;15.90;92.62
43934;BME280;59081;42.706;23.306;2022-09-03T00:03:21;95029.31;;;14.97;91.82
43934;BME280;59081;42.706;23.306;2022-09-03T00:08:30;95074.59;;;14.94;91.82
43934;BME280;59081;42.706;23.306;2022-09-03T00:13:36;94980.69;;;14.26;92.74
43934;BME280;59081;42.706;23.306;2022-09-03T00:16:07;95020.63;;;14.71;93.03
43934;BME280;59081;42.706;23.306;2022-09-03T00:18:40;95111.13;;;15.35;92.06
43934;BME280;59081;42.706;23.306;2022-09-03T00:21:10;95076.44;;;14.97;91.97
43934;BME280;59081;42.706;23.306;2022-09-03T00:23:41;95111.94;;;15.26;92.44
43934;BME280;59081;42.706;23.306;2022-09-03T00:26:26;95241.34;;;15.98;92.69
43934;BME280;59081;42.706;23.306;2022-09-03T00:29:05;95095.06;;;15.06;92.30
43934;BME280;59081;42.706;23.306;2022-09-03T00:31:47;95002.84;;;14.36;92.37
43934;BME280;59081;42.706;23.306;2022-09-03T00:34:34;95043.47;;;14.39;94.51
43934;BME280;59081;42.706;23.306;2022-09-03T00:37:03;94984.78;;;13.98;95.00
43934;BME280;59081;42.706;23.306;2022-09-03T00:39:29;95228.75;;;15.55;95.45
43934;BME280;59081;42.706;23.306;2022-09-03T00:42:18;95136.06;;;15.02;94.88
43934;BME280;59081;42.706;23.306;2022-09-03T00:56:03;95124.22;;;14.92;95.12
43934;BME280;59081;42.706;23.306;2022-09-03T01:12:58;95224.56;;;15.93;93.53
43934;BME280;59081;42.706;23.306;2022-09-03T01:32:11;95152.72;;;15.02;94.64
43934;BME280;59081;42.706;23.306;2022-09-03T01:37:29;95213.66;;;15.38;94.74
43934;BME280;59081;42.706;23.306;2022-09-03T01:40:12;95093.81;;;14.55;94.45
43934;BME280;59081;42.706;23.306;2022-09-03T01:45:58;95151.22;;;14.82;94.71
43934;BME280;59081;42.706;23.306;2022-09-03T01:48:39;95188.84;;;15.25;94.24
43934;BME280;59081;42.706;23.306;2022-09-03T01:51:18;95202.56;;;15.38;94.36
43934;BME280;59081;42.706;23.306;2022-09-03T01:59:48;95222.25;;;15.58;93.52
43934;BME280;59081;42.706;23.306;2022-09-03T02:02:23;95183.72;;;15.42;92.51
43934;BME280;59081;42.706;23.306;2022-09-03T02:10:04;95201.22;;;15.66;91.46
43934;BME280;59081;42.706;23.306;2022-09-03T02:12:32;95229.84;;;15.82;91.63
43934;BME280;59081;42.706;23.306;2022-09-03T02:15:14;95125.09;;;15.07;91.30
43934;BME280;59081;42.706;23.306;2022-09-03T02:17:42;95093.03;;;14.55;91.53
43934;BME280;59081;42.706;23.306;2022-09-03T02:20:11;95126.22;;;14.91;91.89
43934;BME280;59081;42.706;23.306;2022-09-03T02:22:41;95136.53;;;15.00;91.58
43934;BME280;59081;42.706;23.306;2022-09-03T02:25:08;95063.19;;;14.32;91.61
43934;BME280;59081;42.706;23.306;2022-09-03T02:27:37;95072.44;;;14.47;92.42
43934;BME280;59081;42.706;23.306;2022-09-03T02:30:06;95257.72;;;15.54;92.52
43934;BME280;59081;42.706;23.306;2022-09-03T02:32:37;95048.13;;;14.14;92.31
43934;BME280;59081;42.706;23.306;2022-09-03T02:35:11;95001.25;;;13.83;92.72
43934;BME280;59081;42.706;23.306;2022-09-03T02:37:37;95093.69;;;14.50;92.80
43934;BME280;59081;42.706;23.306;2022-09-03T02:40:03;95139.97;;;14.77;92.66
43934;BME280;59081;42.706;23.306;2022-09-03T02:42:34;95083.50;;;14.38;93.27
43934;BME280;59081;42.706;23.306;2022-09-03T02:45:19;95217.41;;;15.17;93.34
43934;BME280;59081;42.706;23.306;2022-09-03T02:47:51;95208.63;;;15.09;93.66
43934;BME280;59081;42.706;23.306;2022-09-03T02:50:22;95190.34;;;14.84;93.96
43934;BME280;59081;42.706;23.306;2022-09-03T02:52:48;95041.81;;;13.86;93.49
43934;BME280;59081;42.706;23.306;2022-09-03T02:55:14;95241.16;;;15.09;93.69
43934;BME280;59081;42.706;23.306;2022-09-03T02:57:40;95188.97;;;14.80;94.21
43934;BME280;59081;42.706;23.306;2022-09-03T03:00:06;95157.88;;;14.57;93.90
43934;BME280;59081;42.706;23.306;2022-09-03T03:02:32;95190.66;;;14.86;93.72
43934;BME280;59081;42.706;23.306;2022-09-03T03:04:58;95116.63;;;14.50;93.45
43934;BME280;59081;42.706;23.306;2022-09-03T03:07:24;95176.19;;;14.82;93.39
43934;BME280;59081;42.706;23.306;2022-09-03T03:09:51;95142.91;;;14.73;92.65
43934;BME280;59081;42.706;23.306;2022-09-03T03:12:16;95079.50;;;14.20;92.68
43934;BME280;59081;42.706;23.306;2022-09-03T03:14:43;95065.19;;;14.22;93.05
43934;BME280;59081;42.706;23.306;2022-09-03T03:17:08;95083.38;;;14.41;92.00
43934;BME280;59081;42.706;23.306;2022-09-03T03:19:34;95089.53;;;14.45;92.32
43934;BME280;59081;42.706;23.306;2022-09-03T03:22:00;95195.38;;;15.13;92.23
43934;BME280;59081;42.706;23.306;2022-09-03T03:24:25;95257.38;;;15.61;91.32
43934;BME280;59081;42.706;23.306;2022-09-03T03:26:54;95185.97;;;15.11;91.41
43934;BME280;59081;42.706;23.306;2022-09-03T03:29:22;95176.91;;;14.92;91.82
43934;BME280;59081;42.706;23.306;2022-09-03T03:31:49;95040.78;;;13.84;92.23
43934;BME280;59081;42.706;23.306;2022-09-03T03:34:15;95262.72;;;15.23;93.55
43934;BME280;59081;42.706;23.306;2022-09-03T03:36:44;95080.78;;;14.01;93.98
43934;BME280;59081;42.706;23.306;2022-09-03T03:39:09;95177.72;;;14.74;93.92
43934;BME280;59081;42.706;23.306;2022-09-03T03:41:35;95219.28;;;15.02;93.40
43934;BME280;59081;42.706;23.306;2022-09-03T03:44:05;95145.88;;;14.42;92.93
43934;BME280;59081;42.706;23.306;2022-09-03T03:46:33;95037.06;;;13.78;93.45
43934;BME280;59081;42.706;23.306;2022-09-03T03:48:59;95095.34;;;14.20;93.17
43934;BME280;59081;42.706;23.306;2022-09-03T03:51:26;95175.25;;;14.76;92.84
43934;BME280;59081;42.706;23.306;2022-09-03T03:53:56;95254.09;;;15.21;92.91
43934;BME280;59081;42.706;23.306;2022-09-03T03:56:22;95060.63;;;13.82;94.15
43934;BME280;59081;42.706;23.306;2022-09-03T03:58:49;95050.00;;;13.81;93.01
43934;BME280;59081;42.706;23.306;2022-09-03T04:01:15;95266.56;;;15.25;93.07
43934;BME280;59081;42.706;23.306;2022-09-03T04:03:41;95148.81;;;14.48;92.73
43934;BME280;59081;42.706;23.306;2022-09-03T04:06:09;95139.25;;;14.49;92.72
43934;BME280;59081;42.706;23.306;2022-09-03T04:08:37;95262.19;;;15.43;92.42
43934;BME280;59081;42.706;23.306;2022-09-03T04:11:05;95234.72;;;15.03;92.21
43934;BME280;59081;42.706;23.306;2022-09-03T04:13:33;95173.56;;;14.79;92.41
43934;BME280;59081;42.706;23.306;2022-09-03T04:16:19;95146.03;;;14.48;92.33
43934;BME280;59081;42.706;23.306;2022-09-03T04:18:45;95163.41;;;14.76;92.48
43934;BME280;59081;42.706;23.306;2022-09-03T04:21:18;95269.91;;;15.48;92.31
43934;BME280;59081;42.706;23.306;2022-09-03T04:23:46;95264.84;;;15.55;91.87
43934;BME280;59081;42.706;23.306;2022-09-03T04:26:16;95214.31;;;15.15;91.19
43934;BME280;59081;42.706;23.306;2022-09-03T04:28:42;95188.47;;;15.00;90.95
43934;BME280;59081;42.706;23.306;2022-09-03T04:31:11;95238.34;;;15.27;90.78
43934;BME280;59081;42.706;23.306;2022-09-03T04:33:37;95214.63;;;15.08;90.44
43934;BME280;59081;42.706;23.306;2022-09-03T04:36:18;95134.31;;;14.35;90.97
43934;BME280;59081;42.706;23.306;2022-09-03T04:38:45;95102.94;;;14.19;90.95
43934;BME280;59081;42.706;23.306;2022-09-03T04:41:18;95080.78;;;14.01;91.21
43934;BME280;59081;42.706;23.306;2022-09-03T04:43:44;95126.00;;;14.35;90.87
43934;BME280;59081;42.706;23.306;2022-09-03T04:46:12;95100.59;;;14.27;90.47
43934;BME280;59081;42.706;23.306;2022-09-03T04:48:38;95189.28;;;14.82;90.26
43934;BME280;59081;42.706;23.306;2022-09-03T04:51:10;95146.19;;;14.53;90.14
43934;BME280;59081;42.706;23.306;2022-09-03T04:53:37;95113.38;;;14.06;90.31
43934;BME280;59081;42.706;23.306;2022-09-03T04:56:14;95150.94;;;14.25;90.71
43934;BME280;59081;42.706;23.306;2022-09-03T04:58:41;95237.03;;;14.77;91.37
43934;BME280;59081;42.706;23.306;2022-09-03T05:01:16;95183.16;;;14.50;91.47
43934;BME280;59081;42.706;23.306;2022-09-03T05:03:43;95244.56;;;14.76;91.40
43934;BME280;59081;42.706;23.306;2022-09-03T05:06:09;95137.53;;;14.06;91.40
43934;BME280;59081;42.706;23.306;2022-09-03T05:08:35;95154.31;;;14.29;91.47
43934;BME280;59081;42.706;23.306;2022-09-03T05:11:05;95204.09;;;14.51;91.03
43934;BME280;59081;42.706;23.306;2022-09-03T05:13:32;95231.31;;;14.44;91.96
43934;BME280;59081;42.706;23.306;2022-09-03T05:15:59;95288.34;;;15.00;92.02
43934;BME280;59081;42.706;23.306;2022-09-03T05:18:25;95211.00;;;14.47;91.30
43934;BME280;59081;42.706;23.306;2022-09-03T05:21:05;95277.53;;;14.92;91.31
43934;BME280;59081;42.706;23.306;2022-09-03T05:23:34;95124.91;;;13.96;90.88
43934;BME280;59081;42.706;23.306;2022-09-03T05:26:02;95125.69;;;14.05;90.15
43934;BME280;59081;42.706;23.306;2022-09-03T05:28:29;95161.41;;;14.40;89.27
43934;BME280;59081;42.706;23.306;2022-09-03T05:31:03;95256.28;;;14.89;89.85
43934;BME280;59081;42.706;23.306;2022-09-03T05:33:29;95227.16;;;14.76;89.71
43934;BME280;59081;42.706;23.306;2022-09-03T05:36:05;95249.66;;;14.87;89.88
43934;BME280;59081;42.706;23.306;2022-09-03T05:38:32;95117.69;;;13.98;89.46
43934;BME280;59081;42.706;23.306;2022-09-03T05:41:02;95151.53;;;14.20;89.63
43934;BME280;59081;42.706;23.306;2022-09-03T05:43:29;95239.03;;;14.85;89.07
43934;BME280;59081;42.706;23.306;2022-09-03T05:45:59;95270.75;;;15.21;88.55
43934;BME280;59081;42.706;23.306;2022-09-03T05:48:26;95277.03;;;15.30;87.74
43934;BME280;59081;42.706;23.306;2022-09-03T05:53:28;95213.13;;;14.97;87.40
43934;BME280;59081;42.706;23.306;2022-09-03T05:55:59;95255.75;;;15.37;87.24
43934;BME280;59081;42.706;23.306;2022-09-03T05:58:29;95325.19;;;15.88;86.43
43934;BME280;59081;42.706;23.306;2022-09-03T06:00:55;95142.16;;;14.63;85.52
43934;BME280;59081;42.706;23.306;2022-09-03T06:03:21;95356.00;;;16.08;85.40
43934;BME280;59081;42.706;23.306;2022-09-03T06:05:53;95152.47;;;14.72;85.64
43934;BME280;59081;42.706;23.306;2022-09-03T06:08:21;95355.63;;;16.24;85.90
43934;BME280;59081;42.706;23.306;2022-09-03T06:10:47;95295.06;;;15.95;84.75
43934;BME280;59081;42.706;23.306;2022-09-03T06:13:13;95359.94;;;16.25;85.14
43934;BME280;59081;42.706;23.306;2022-09-03T06:15:38;95169.91;;;15.24;84.66
43934;BME280;59081;42.706;23.306;2022-09-03T06:18:04;95241.78;;;15.73;84.34
43934;BME280;59081;42.706;23.306;2022-09-03T06:20:30;95145.09;;;15.20;82.82
43934;BME280;59081;42.706;23.306;2022-09-03T06:22:57;95289.69;;;16.25;82.52
43934;BME280;59081;42.706;23.306;2022-09-03T06:25:23;95220.28;;;15.83;81.97
43934;BME280;59081;42.706;23.306;2022-09-03T06:27:49;95238.00;;;16.18;82.13
43934;BME280;59081;42.706;23.306;2022-09-03T06:30:15;95247.53;;;16.26;80.38
43934;BME280;59081;42.706;23.306;2022-09-03T06:32:48;95236.13;;;16.24;80.52
43934;BME280;59081;42.706;23.306;2022-09-03T06:35:17;95370.75;;;16.89;81.16
43934;BME280;59081;42.706;23.306;2022-09-03T06:37:44;95173.13;;;15.74;80.34
43934;BME280;59081;42.706;23.306;2022-09-03T06:40:10;95301.47;;;16.44;80.93
43934;BME280;59081;42.706;23.306;2022-09-03T06:42:55;95359.41;;;17.17;79.75
43934;BME280;59081;42.706;23.306;2022-09-03T06:45:21;95322.19;;;17.14;79.30
43934;BME280;59081;42.706;23.306;2022-09-03T06:47:46;95266.34;;;16.79;79.63
43934;BME280;59081;42.706;23.306;2022-09-03T06:50:12;95203.91;;;16.56;77.99
43934;BME280;59081;42.706;23.306;2022-09-03T06:52:38;95350.72;;;17.38;77.28
43934;BME280;59081;42.706;23.306;2022-09-03T06:55:04;95290.03;;;16.75;78.87
43934;BME280;59081;42.706;23.306;2022-09-03T06:57:30;95232.59;;;16.15;80.53
43934;BME280;59081;42.706;23.306;2022-09-03T06:59:55;95238.22;;;16.29;79.75
43934;BME280;59081;42.706;23.306;2022-09-03T07:02:21;95261.38;;;16.35;79.48
43934;BME280;59081;42.706;23.306;2022-09-03T07:04:47;95378.13;;;17.16;80.11
43934;BME280;59081;42.706;23.306;2022-09-03T07:07:14;95331.72;;;16.98;79.68
43934;BME280;59081;42.706;23.306;2022-09-03T07:09:40;95227.28;;;16.50;78.77
43934;BME280;59081;42.706;23.306;2022-09-03T07:12:06;95271.31;;;16.75;79.48
43934;BME280;59081;42.706;23.306;2022-09-03T07:14:32;95280.38;;;16.61;79.13
43934;BME280;59081;42.706;23.306;2022-09-03T07:16:57;95308.78;;;16.89;79.51
43934;BME280;59081;42.706;23.306;2022-09-03T07:19:23;95337.63;;;17.15;79.21
43934;BME280;59081;42.706;23.306;2022-09-03T07:21:49;95367.56;;;17.44;77.21
43934;BME280;59081;42.706;23.306;2022-09-03T07:24:15;95276.34;;;16.86;77.39
43934;BME280;59081;42.706;23.306;2022-09-03T07:26:41;95220.84;;;16.67;76.74
43934;BME280;59081;42.706;23.306;2022-09-03T07:29:10;95397.13;;;17.95;75.80
43934;BME280;59081;42.706;23.306;2022-09-03T07:31:39;95397.50;;;17.88;75.33
43934;BME280;59081;42.706;23.306;2022-09-03T07:34:07;95396.16;;;17.83;74.76
43934;BME280;59081;42.706;23.306;2022-09-03T07:36:39;95236.44;;;17.03;74.31
43934;BME280;59081;42.706;23.306;2022-09-03T07:39:07;95227.16;;;17.21;74.28
43934;BME280;59081;42.706;23.306;2022-09-03T07:41:33;95252.25;;;17.65;72.89
43934;BME280;59081;42.706;23.306;2022-09-03T07:44:00;95383.63;;;18.37;72.24
43934;BME280;59081;42.706;23.306;2022-09-03T07:46:31;95303.53;;;17.88;72.62
43934;BME280;59081;42.706;23.306;2022-09-03T07:48:59;95216.97;;;17.18;73.27
43934;BME280;59081;42.706;23.306;2022-09-03T07:51:30;95298.69;;;18.18;72.19
43934;BME280;59081;42.706;23.306;2022-09-03T07:53:57;95194.94;;;17.94;70.95
43934;BME280;59081;42.706;23.306;2022-09-03T07:56:25;95229.88;;;18.09;69.80
43934;BME280;59081;42.706;23.306;2022-09-03T07:58:51;95243.91;;;18.15;69.27
43934;BME280;59081;42.706;23.306;2022-09-03T08:01:22;95344.91;;;18.95;69.65
43934;BME280;59081;42.706;23.306;2022-09-03T08:03:49;95215.06;;;18.18;68.89
43934;BME280;59081;42.706;23.306;2022-09-03T08:08:55;95261.09;;;18.49;67.91
43934;BME280;59081;42.706;23.306;2022-09-03T08:11:25;95221.75;;;18.26;68.24
43934;BME280;59081;42.706;23.306;2022-09-03T08:13:55;95404.03;;;19.13;68.56
43934;BME280;59081;42.706;23.306;2022-09-03T08:16:25;95287.59;;;18.59;68.38
43934;BME280;59081;42.706;23.306;2022-09-03T08:18:56;95232.06;;;18.40;67.71
43934;BME280;59081;42.706;23.306;2022-09-03T08:21:26;95296.56;;;19.03;66.70
43934;BME280;59081;42.706;23.306;2022-09-03T08:26:22;95413.13;;;19.69;65.97
43934;BME280;59081;42.706;23.306;2022-09-03T08:28:47;95390.59;;;19.78;66.30
43934;BME280;59081;42.706;23.306;2022-09-03T08:31:21;95373.59;;;19.82;65.01
43934;BME280;59081;42.706;23.306;2022-09-03T08:33:55;95369.22;;;19.75;65.23
43934;BME280;59081;42.706;23.306;2022-09-03T08:36:26;95254.50;;;19.12;64.86
43934;BME280;59081;42.706;23.306;2022-09-03T08:38:53;95223.69;;;19.01;64.82
43934;BME280;59081;42.706;23.306;2022-09-03T08:47:24;95392.19;;;21.16;60.64
43934;BME280;59081;42.706;23.306;2022-09-03T08:50:07;95391.22;;;21.19;60.58
43934;BME280;59081;42.706;23.306;2022-09-03T08:52:52;95305.13;;;20.29;60.42
43934;BME280;59081;42.706;23.306;2022-09-03T08:55:35;95271.94;;;20.11;61.51
43934;BME280;59081;42.706;23.306;2022-09-03T08:58:27;95350.13;;;20.63;60.63
43934;BME280;59081;42.706;23.306;2022-09-03T09:01:00;95295.69;;;19.90;61.46
43934;BME280;59081;42.706;23.306;2022-09-03T09:06:35;95407.16;;;20.65;62.06
43934;BME280;59081;42.706;23.306;2022-09-03T09:20:47;95412.03;;;21.61;58.30
43934;BME280;59081;42.706;23.306;2022-09-03T09:23:28;95311.44;;;21.15;58.90
43934;BME280;59081;42.706;23.306;2022-09-03T09:25:56;95331.69;;;21.36;58.90
43934;BME280;59081;42.706;23.306;2022-09-03T09:28:29;95209.25;;;20.29;58.93
43934;BME280;59081;42.706;23.306;2022-09-03T09:31:00;95238.38;;;20.48;59.23
43934;BME280;59081;42.706;23.306;2022-09-03T09:36:16;95355.16;;;21.49;58.31
43934;BME280;59081;42.706;23.306;2022-09-03T09:38:43;95409.13;;;21.39;59.54
43934;BME280;59081;42.706;23.306;2022-09-03T09:41:15;95301.50;;;21.08;58.19
43934;BME280;59081;42.706;23.306;2022-09-03T09:43:42;95272.44;;;21.00;57.65
43934;BME280;59081;42.706;23.306;2022-09-03T09:46:18;95297.72;;;21.11;57.23
43934;BME280;59081;42.706;23.306;2022-09-03T09:48:52;95341.19;;;21.66;56.98
43934;BME280;59081;42.706;23.306;2022-09-03T09:51:19;95409.38;;;22.22;57.02
43934;BME280;59081;42.706;23.306;2022-09-03T09:53:45;95316.25;;;21.85;55.52
43934;BME280;59081;42.706;23.306;2022-09-03T09:56:24;95352.25;;;22.20;54.70
43934;BME280;59081;42.706;23.306;2022-09-03T09:59:02;95425.75;;;22.91;54.45
43934;BME280;59081;42.706;23.306;2022-09-03T10:01:27;95279.81;;;21.79;54.18
43934;BME280;59081;42.706;23.306;2022-09-03T10:04:07;95226.03;;;21.75;54.76
43934;BME280;59081;42.706;23.306;2022-09-03T10:06:34;95420.38;;;22.99;53.46
43934;BME280;59081;42.706;23.306;2022-09-03T10:09:25;95417.53;;;23.04;54.03
43934;BME280;59081;42.706;23.306;2022-09-03T10:14:35;95405.84;;;22.44;53.84
43934;BME280;59081;42.706;23.306;2022-09-03T10:17:21;95408.38;;;22.76;53.23
43934;BME280;59081;42.706;23.306;2022-09-03T10:20:09;95410.69;;;22.88;52.23
43934;BME280;59081;42.706;23.306;2022-09-03T10:22:55;95237.50;;;21.77;51.89
43934;BME280;59081;42.706;23.306;2022-09-03T10:25:24;95329.75;;;22.76;51.74
43934;BME280;59081;42.706;23.306;2022-09-03T10:27:51;95261.38;;;22.56;51.48
43934;BME280;59081;42.706;23.306;2022-09-03T10:30:19;95249.53;;;22.97;50.56
43934;BME280;59081;42.706;23.306;2022-09-03T10:33:04;95399.91;;;23.89;50.62
43934;BME280;59081;42.706;23.306;2022-09-03T10:35:42;95363.84;;;23.36;50.42
43934;BME280;59081;42.706;23.306;2022-09-03T10:40:42;95371.78;;;23.20;49.80
43934;BME280;59081;42.706;23.306;2022-09-03T10:43:34;95407.09;;;23.79;50.71
43934;BME280;59081;42.706;23.306;2022-09-03T10:46:15;95341.63;;;23.84;48.57
43934;BME280;59081;42.706;23.306;2022-09-03T10:51:53;95416.66;;;23.59;51.28
43934;BME280;59081;42.706;23.306;2022-09-03T10:54:35;95332.03;;;23.63;50.58
43934;BME280;59081;42.706;23.306;2022-09-03T10:57:42;95332.44;;;23.78;48.64
43934;BME280;59081;42.706;23.306;2022-09-03T11:00:14;95251.66;;;23.73;47.70
43934;BME280;59081;42.706;23.306;2022-09-03T11:05:20;95326.41;;;23.63;48.82
43934;BME280;59081;42.706;23.306;2022-09-03T11:07:51;95413.47;;;24.32;48.79
43934;BME280;59081;42.706;23.306;2022-09-03T11:10:28;95397.28;;;24.74;48.50
43934;BME280;59081;42.706;23.306;2022-09-03T11:13:27;95404.41;;;24.45;47.99
43934;BME280;59081;42.706;23.306;2022-09-03T11:16:04;95303.97;;;23.93;47.65
43934;BME280;59081;42.706;23.306;2022-09-03T11:18:41;95275.38;;;23.89;47.41
43934;BME280;59081;42.706;23.306;2022-09-03T11:21:11;95426.38;;;24.82;46.88
43934;BME280;59081;42.706;23.306;2022-09-03T11:23:46;95305.75;;;23.90;46.92
43934;BME280;59081;42.706;23.306;2022-09-03T11:26:18;95340.03;;;24.30;47.39
43934;BME280;59081;42.706;23.306;2022-09-03T11:28:56;95343.41;;;24.23;47.27
43934;BME280;59081;42.706;23.306;2022-09-03T11:34:27;95335.91;;;24.91;46.98
43934;BME280;59081;42.706;23.306;2022-09-03T11:37:18;95395.41;;;25.79;44.67
43934;BME280;59081;42.706;23.306;2022-09-03T11:40:13;95366.25;;;26.09;44.06
43934;BME280;59081;42.706;23.306;2022-09-03T11:42:39;95344.22;;;25.88;44.43
43934;BME280;59081;42.706;23.306;2022-09-03T11:47:52;95309.06;;;26.53;42.47
43934;BME280;59081;42.706;23.306;2022-09-03T11:50:24;95282.50;;;26.62;41.16
43934;BME280;59081;42.706;23.306;2022-09-03T11:52:52;95294.16;;;26.08;41.20
43934;BME280;59081;42.706;23.306;2022-09-03T11:55:29;95360.06;;;27.06;41.27
43934;BME280;59081;42.706;23.306;2022-09-03T11:57:56;95301.50;;;26.61;41.64
43934;BME280;59081;42.706;23.306;2022-09-03T12:00:23;95345.97;;;26.87;41.22
43934;BME280;59081;42.706;23.306;2022-09-03T12:02:55;95355.41;;;27.35;40.90
43934;BME280;59081;42.706;23.306;2022-09-03T12:05:31;95397.47;;;27.91;40.45
43934;BME280;59081;42.706;23.306;2022-09-03T12:10:45;95391.16;;;27.06;42.40
43934;BME280;59081;42.706;23.306;2022-09-03T12:18:30;95265.66;;;26.83;41.26
43934;BME280;59081;42.706;23.306;2022-09-03T12:23:48;95370.84;;;27.34;40.20
43934;BME280;59081;42.706;23.306;2022-09-03T12:26:18;95324.56;;;26.33;43.75
43934;BME280;59081;42.706;23.306;2022-09-03T12:28:53;95256.31;;;26.61;42.15
43934;BME280;59081;42.706;23.306;2022-09-03T12:31:26;95374.88;;;27.52;39.68
43934;BME280;59081;42.706;23.306;2022-09-03T12:33:59;95375.97;;;27.49;39.94
43934;BME280;59081;42.706;23.306;2022-09-03T12:36:46;95345.63;;;26.64;42.06
43934;BME280;59081;42.706;23.306;2022-09-03T12:39:17;95361.31;;;26.92;41.26
43934;BME280;59081;42.706;23.306;2022-09-03T12:42:05;95371.06;;;26.64;42.99
43934;BME280;59081;42.706;23.306;2022-09-03T12:44:38;95213.16;;;26.02;42.52
43934;BME280;59081;42.706;23.306;2022-09-03T12:47:10;95252.28;;;26.12;40.32
43934;BME280;59081;42.706;23.306;2022-09-03T12:49:41;95362.56;;;27.10;39.72
43934;BME280;59081;42.706;23.306;2022-09-03T12:55:07;95239.03;;;26.20;40.61
43934;BME280;59081;42.706;23.306;2022-09-03T12:57:36;95262.63;;;26.81;39.90
43934;BME280;59081;42.706;23.306;2022-09-03T13:00:06;95361.94;;;27.17;40.98
43934;BME280;59081;42.706;23.306;2022-09-03T13:02:38;95360.34;;;26.89;41.07
43934;BME280;59081;42.706;23.306;2022-09-03T13:05:12;95304.66;;;26.71;40.87
43934;BME280;59081;42.706;23.306;2022-09-03T13:07:39;95256.97;;;26.81;39.98
43934;BME280;59081;42.706;23.306;2022-09-03T13:10:07;95260.25;;;26.98;39.42
43934;BME280;59081;42.706;23.306;2022-09-03T13:12:46;95224.50;;;25.46;41.80
43934;BME280;59081;42.706;23.306;2022-09-03T13:15:22;95287.53;;;25.49;42.44
43934;BME280;59081;42.706;23.306;2022-09-03T13:23:23;95337.09;;;26.19;41.32
43934;BME280;59081;42.706;23.306;2022-09-03T13:29:13;95330.81;;;26.45;40.50
43934;BME280;59081;42.706;23.306;2022-09-03T13:31:48;95289.34;;;26.93;40.08
43934;BME280;59081;42.706;23.306;2022-09-03T13:34:33;95331.16;;;27.00;39.61
43934;BME280;59081;42.706;23.306;2022-09-03T13:37:16;95264.09;;;26.55;39.27
43934;BME280;59081;42.706;23.306;2022-09-03T13:39:54;95211.25;;;26.24;39.22
43934;BME280;59081;42.706;23.306;2022-09-03T13:47:43;95242.81;;;26.41;40.14
43934;BME280;59081;42.706;23.306;2022-09-03T13:50:39;95223.03;;;27.20;37.10
43934;BME280;59081;42.706;23.306;2022-09-03T13:56:15;95325.22;;;28.87;35.00
43934;BME280;59081;42.706;23.306;2022-09-03T13:58:52;95249.16;;;29.06;33.54
43934;BME280;59081;42.706;23.306;2022-09-03T14:04:16;95302.28;;;29.05;34.62
43934;BME280;59081;42.706;23.306;2022-09-03T14:12:33;95335.34;;;28.20;35.70
43934;BME280;59081;42.706;23.306;2022-09-03T14:17:41;95336.13;;;27.07;38.28
43934;BME280;59081;42.706;23.306;2022-09-03T14:20:28;95262.09;;;26.82;38.55
43934;BME280;59081;42.706;23.306;2022-09-03T14:23:04;95333.28;;;28.07;37.50
43934;BME280;59081;42.706;23.306;2022-09-03T14:25:32;95242.94;;;27.96;36.18
43934;BME280;59081;42.706;23.306;2022-09-03T14:28:19;95280.41;;;28.44;35.14
43934;BME280;59081;42.706;23.306;2022-09-03T14:31:09;95329.97;;;28.50;36.14
43934;BME280;59081;42.706;23.306;2022-09-03T14:36:25;95240.78;;;27.89;35.43
43934;BME280;59081;42.706;23.306;2022-09-03T14:39:07;95230.22;;;27.68;36.07
43934;BME280;59081;42.706;23.306;2022-09-03T14:56:00;95261.72;;;27.38;35.79
43934;BME280;59081;42.706;23.306;2022-09-03T14:58:39;95323.47;;;27.87;36.33
43934;BME280;59081;42.706;23.306;2022-09-03T15:01:12;95335.38;;;27.59;37.02
43934;BME280;59081;42.706;23.306;2022-09-03T15:07:11;95338.59;;;26.20;39.82
43934;BME280;59081;42.706;23.306;2022-09-03T15:12:22;95238.50;;;24.95;40.79
43934;BME280;59081;42.706;23.306;2022-09-03T15:14:57;95324.63;;;25.15;41.86
43934;BME280;59081;42.706;23.306;2022-09-03T15:20:02;95201.47;;;24.13;41.90
43934;BME280;59081;42.706;23.306;2022-09-03T15:25:18;95343.50;;;24.72;42.82
43934;BME280;59081;42.706;23.306;2022-09-03T15:30:56;95247.38;;;23.67;43.81
43934;BME280;59081;42.706;23.306;2022-09-03T15:36:40;95252.44;;;23.33;44.83
43934;BME280;59081;42.706;23.306;2022-09-03T15:39:29;95260.47;;;23.06;45.45
43934;BME280;59081;42.706;23.306;2022-09-03T15:41:58;95208.25;;;22.70;46.08
43934;BME280;59081;42.706;23.306;2022-09-03T15:44:25;95350.53;;;23.36;46.45
43934;BME280;59081;42.706;23.306;2022-09-03T15:47:00;95360.22;;;23.41;46.94
43934;BME280;59081;42.706;23.306;2022-09-03T15:55:43;95365.59;;;23.39;52.99
43934;BME280;59081;42.706;23.306;2022-09-03T16:00:52;95225.97;;;22.37;53.39
43934;BME280;59081;42.706;23.306;2022-09-03T16:04:08;95287.16;;;22.66;53.43
43934;BME280;59081;42.706;23.306;2022-09-03T16:09:33;95371.31;;;23.11;54.35
43934;BME280;59081;42.706;23.306;2022-09-03T16:12:26;95376.22;;;22.94;54.56
43934;BME280;59081;42.706;23.306;2022-09-03T16:15:18;95333.34;;;22.60;55.21
43934;BME280;59081;42.706;23.306;2022-09-03T16:17:59;95372.63;;;22.93;54.87
43934;BME280;59081;42.706;23.306;2022-09-03T16:25:34;95311.94;;;22.34;55.72
43934;BME280;59081;42.706;23.306;2022-09-03T16:37:02;95401.75;;;22.45;57.23
43934;BME280;59081;42.706;23.306;2022-09-03T16:39:54;95399.97;;;22.26;57.86
43934;BME280;59081;42.706;23.306;2022-09-03T16:42:43;95329.44;;;21.51;58.88
43934;BME280;59081;42.706;23.306;2022-09-03T16:48:01;95273.72;;;20.94;61.57
43934;BME280;59081;42.706;23.306;2022-09-03T16:53:15;95305.06;;;20.55;62.94
43934;BME280;59081;42.706;23.306;2022-09-03T17:10:05;95401.94;;;20.84;62.43